METAR Data
IDs: Format: Raw Decoded Include TAF

Data at: 2134 UTC 02 Aug 2021

LKNA 022132Z 27010KT 9999 -RA FEW022 SCT040 OVC070 15/13 Q1017 RMK BLU